Airfield :
LOGIN :

Register | Disclaimer

   EN    FR    IT 

 










Legend :    VFR   Marginal VFR   IFR   Intensive IFR   Very Intensive IFR
Visi :
Ceiling :
>= 8 km
>= 3000ft
5 to 8 km
1000 to 3000 ft
1500m to 5 km
500 to 1000 ft
800 to 1500m
200 to 500 ft
< 800m
< 200 ft
Symbols :   Thunderstorms  Fog  Heavy snow  Heavy precipitations  Wind > 20 kt
SIGMETs :     Misc.  Thunderstorms  Icing  Turbulence  Mountain Waves  Volcanic Ashes







- Airport Elevation : 776 ft
- IATA code : RMS


ETAR - Ramstein Air Base

CURRENT METAR :
  • 151956Z AUTO 00000KT 9999 CLR 14/11 A3018 RMK AO2 SLP221 T01420110 $

EXPIRED METARs :
  • 151856Z AUTO 00000KT 9999 CLR 14/12 A3017 RMK AO2 SLP219 T01360115 $
  • 151756Z AUTO 20003KT 9999 CLR 19/13 A3016 RMK AO2 SLP216 T01860128 10277 20186 55003 $

TAF TAF ETAR
Valid from the 15 at 18:00 until the 17 at 00:00 UTC


151802Z 1518/1700 VRB06KT 9999 SKC QNH3016INS
BECMG 1610/1611 26010KT 9999 FEW050 SCT100 QNH3014INS
BECMG 1618/1619 VRB06KT 9999 SCT015 BKN050 QNH3010INS TX28/1614Z TN09/1604Z
No reported NOTAMs for that airfield.



MET'MAP, your aeronautical weather chart ! - Copyright ORBIFLY December 2007 - Disclaimer

ORBIFLY MET'MAP TEAM :

Programming & Development : Alexandra Zaïnal
Concept & Development : Baudouin d'Aumeries
Co-Development & Prog : Marc-Olivier Méhu
Technical & hardware support : Manuel Goepfert

Contact : metmap@orbifly.com




SOURCES & CREDITS :

   NOAA